Time;durP1;ratioP1;P1;durP2;ratioP2;P2;SDS_P1;SDS_P2;PMS_P1;PMS_P2;Temp;Humidity;BMP_temperature;BMP_pressure;BME280_temperature;BME280_humidity;BME280_pressure;Samples;Min_cycle;Max_cycle;Signal;HPM_P1;HPM_P2
2022/05/17 00:03:03;;;;;;;10.63;7.43;;;;;;;18.96;75.26;100558.19;10369198;28;20152;-63
2022/05/17 00:08:05;;;;;;;9.15;8.20;;;;;;;18.95;75.10;100552.97;10371083;28;20071;-63
2022/05/17 00:13:06;;;;;;;9.00;7.43;;;;;;;18.90;74.92;100558.88;10371189;28;20629;-63
2022/05/17 00:18:11;;;;;;;8.32;7.32;;;;;;;18.68;74.65;100526.16;10373656;28;20132;-64
2022/05/17 00:23:15;;;;;;;9.82;7.70;;;;;;;18.66;75.52;100521.94;10372201;28;20053;-63
2022/05/17 00:28:21;;;;;;;9.45;8.23;;;;;;;18.86;74.98;100557.53;10364987;28;20522;-63
2022/05/17 00:33:23;;;;;;;8.10;7.30;;;;;;;18.59;75.63;100516.38;10372696;28;20136;-64
2022/05/17 00:38:24;;;;;;;9.07;7.50;;;;;;;18.79;75.31;100560.00;10369407;28;20049;-63
2022/05/17 00:48:58;;;;;;;8.07;7.30;;;;;;;18.53;75.30;100520.59;10368880;28;20049;-63
2022/05/17 00:54:06;;;;;;;7.82;6.95;;;;;;;18.64;74.53;100542.84;10370082;28;20439;-63
2022/05/17 00:59:09;;;;;;;7.32;6.72;;;;;;;18.59;75.61;100546.03;10383508;28;20273;-63
2022/05/17 01:04:16;;;;;;;9.60;6.97;;;;;;;18.53;75.73;100542.16;10371337;28;20050;-63
2022/05/17 01:09:20;;;;;;;9.75;6.88;;;;;;;18.51;76.01;100559.50;10368468;28;20060;-63
2022/05/17 01:19:43;;;;;;;7.30;6.60;;;;;;;18.47;76.00;100552.78;10370232;28;20057;-63
2022/05/17 01:24:46;;;;;;;8.02;7.13;;;;;;;18.43;76.05;100551.44;10367075;28;20060;-64
2022/05/17 01:29:49;;;;;;;8.77;7.55;;;;;;;18.41;75.94;100556.16;10366611;28;20049;-64
2022/05/17 01:34:51;;;;;;;10.10;8.15;;;;;;;18.35;76.18;100561.19;10369483;28;20042;-63
2022/05/17 01:39:52;;;;;;;8.45;7.60;;;;;;;18.28;76.12;100570.09;10365143;28;20049;-63
2022/05/17 01:44:54;;;;;;;10.32;7.30;;;;;;;18.27;76.16;100563.88;10368900;28;20124;-62
2022/05/17 01:49:55;;;;;;;8.98;8.05;;;;;;;18.26;76.04;100567.59;10366870;28;20140;-63
2022/05/17 01:54:57;;;;;;;10.23;7.88;;;;;;;18.02;76.07;100528.81;10368473;28;20053;-63
2022/05/17 01:59:58;;;;;;;8.35;7.57;;;;;;;18.14;75.90;100560.84;10367355;28;20055;-63
2022/05/17 02:05:00;;;;;;;8.93;8.13;;;;;;;17.91;76.57;100541.75;10379496;28;20137;-63
2022/05/17 02:10:01;;;;;;;8.57;7.72;;;;;;;18.00;77.29;100557.78;10374572;28;20559;-63
2022/05/17 02:15:07;;;;;;;9.65;8.75;;;;;;;18.01;77.03;100564.84;10368930;28;20174;-63
2022/05/17 02:20:09;;;;;;;8.55;7.40;;;;;;;18.01;77.40;100564.84;10367282;28;20057;-63
2022/05/17 02:25:11;;;;;;;9.15;7.82;;;;;;;18.00;77.22;100567.72;10368027;28;20095;-63
2022/05/17 02:30:13;;;;;;;9.93;8.23;;;;;;;17.81;77.45;100534.63;10373615;28;20170;-64
2022/05/17 02:35:15;;;;;;;9.90;8.93;;;;;;;17.98;77.08;100558.94;10374565;28;20199;-63
2022/05/17 02:40:17;;;;;;;9.32;8.43;;;;;;;17.99;76.60;100566.00;10375779;28;20147;-63
2022/05/17 02:45:19;;;;;;;9.52;8.18;;;;;;;17.71;76.69;100546.53;10376764;28;20050;-63
2022/05/17 02:50:22;;;;;;;9.30;8.18;;;;;;;17.90;76.77;100589.38;10374197;28;20129;-64
2022/05/17 02:55:24;;;;;;;8.77;7.90;;;;;;;17.65;77.00;100548.03;10370881;28;20056;-63
2022/05/17 03:00:26;;;;;;;8.65;7.38;;;;;;;17.84;77.21;100576.53;10375460;28;20053;-62
2022/05/17 03:05:27;;;;;;;8.98;8.18;;;;;;;17.92;76.58;100584.66;10376938;28;20452;-62
2022/05/17 03:10:29;;;;;;;11.00;8.60;;;;;;;17.82;77.05;100589.34;10375053;28;20059;-63
2022/05/17 03:15:30;;;;;;;9.32;8.45;;;;;;;17.72;77.91;100592.13;10375489;28;20053;-63
2022/05/17 03:20:32;;;;;;;14.02;10.50;;;;;;;17.63;77.37;100577.78;10373900;28;20080;-64
2022/05/17 03:25:33;;;;;;;9.23;8.32;;;;;;;17.61;78.10;100589.72;10375753;28;20376;-63
2022/05/17 03:30:35;;;;;;;12.10;9.15;;;;;;;17.62;78.13;100591.41;10372100;28;20069;-63
2022/05/17 03:35:36;;;;;;;14.38;10.30;;;;;;;17.50;78.42;100598.94;10376447;28;20050;-63
2022/05/17 03:40:38;;;;;;;13.00;10.30;;;;;;;17.47;78.85;100596.56;10374066;28;20053;-62
2022/05/17 03:45:39;;;;;;;11.45;10.27;;;;;;;17.49;79.22;100603.47;10374355;28;20139;-62
2022/05/17 03:50:40;;;;;;;11.13;10.00;;;;;;;17.18;79.14;100568.16;10373528;28;20060;-63
2022/05/17 03:55:42;;;;;;;12.13;10.93;;;;;;;17.33;79.36;100605.25;10372878;28;20053;-63
2022/05/17 04:00:44;;;;;;;10.30;8.57;;;;;;;17.36;79.60;100621.91;10372191;28;20142;-63
2022/05/17 04:05:46;;;;;;;11.05;9.95;;;;;;;17.37;79.27;100620.91;10373226;28;20063;-64
2022/05/17 04:10:47;;;;;;;11.65;10.43;;;;;;;17.35;79.55;100616.69;10372568;28;20209;-63
2022/05/17 04:15:49;;;;;;;11.05;9.95;;;;;;;17.15;79.27;100587.31;10372191;28;20075;-62
2022/05/17 04:20:50;;;;;;;10.52;9.52;;;;;;;17.35;79.85;100633.66;10374065;28;20049;-63
2022/05/17 04:25:52;;;;;;;10.25;9.25;;;;;;;17.31;79.37;100633.13;10371676;28;20151;-63
2022/05/17 04:30:53;;;;;;;11.52;10.40;;;;;;;17.17;79.56;100616.72;10381508;28;20068;-63
2022/05/17 04:35:54;;;;;;;10.60;9.50;;;;;;;17.30;80.35;100642.19;10377108;28;20188;-63
2022/05/17 04:40:56;;;;;;;11.40;10.23;;;;;;;17.34;79.80;100647.28;10369687;28;20079;-62
2022/05/17 04:45:58;;;;;;;13.18;10.35;;;;;;;17.37;80.64;100642.44;10370999;28;20437;-63
2022/05/17 04:50:59;;;;;;;11.93;10.57;;;;;;;17.18;80.65;100616.56;10369428;28;20570;-63
2022/05/17 04:56:02;;;;;;;11.48;10.45;;;;;;;17.40;80.51;100669.03;10370513;28;20499;-64
2022/05/17 05:01:04;;;;;;;12.38;11.13;;;;;;;17.42;81.03;100676.94;10370263;28;20724;-63
2022/05/17 05:06:05;;;;;;;11.27;10.23;;;;;;;17.24;80.12;100650.91;10369044;28;20049;-63
2022/05/17 05:11:06;;;;;;;11.40;10.40;;;;;;;17.48;79.45;100687.06;10368558;28;20650;-63
2022/05/17 05:16:10;;;;;;;13.23;11.80;;;;;;;17.51;79.08;100700.19;10368419;28;20049;-63
2022/05/17 05:21:15;;;;;;;13.02;11.73;;;;;;;17.59;79.31;100694.03;10368021;28;20051;-63
2022/05/17 05:26:17;;;;;;;12.90;11.48;;;;;;;17.58;77.98;100677.03;10369999;28;20607;-63
2022/05/17 05:31:18;;;;;;;11.68;10.57;;;;;;;17.74;78.34;100688.91;10368267;28;20057;-63
2022/05/17 05:36:19;;;;;;;12.95;11.75;;;;;;;17.83;77.84;100686.09;10366742;28;20416;-63
2022/05/17 05:41:21;;;;;;;15.32;11.40;;;;;;;17.89;77.01;100695.41;10368546;28;20049;-64
2022/05/17 05:46:23;;;;;;;14.60;12.88;;;;;;;18.00;77.80;100697.00;10368261;28;20849;-63
2022/05/17 05:51:24;;;;;;;16.42;13.23;;;;;;;18.08;77.20;100696.19;10367036;28;20128;-63
2022/05/17 05:56:26;;;;;;;13.07;11.80;;;;;;;18.21;77.04;100696.56;10366764;28;20045;-63
2022/05/17 06:01:27;;;;;;;14.65;13.15;;;;;;;18.10;76.90;100669.91;10367347;28;20149;-63
2022/05/17 06:06:30;;;;;;;15.68;13.20;;;;;;;18.35;76.38;100695.09;10374512;28;20049;-64
2022/05/17 06:11:31;;;;;;;14.82;13.25;;;;;;;18.35;77.25;100701.31;10374297;28;20504;-64
2022/05/17 06:16:33;;;;;;;14.85;13.18;;;;;;;18.50;76.82;100703.41;10374916;28;20060;-64
2022/05/17 06:21:36;;;;;;;14.32;12.80;;;;;;;18.74;76.48;100710.69;10380232;28;20053;-64
2022/05/17 06:26:38;;;;;;;15.00;12.88;;;;;;;18.93;74.41;100720.38;10375465;28;20211;-64
2022/05/17 06:31:39;;;;;;;14.35;12.93;;;;;;;19.12;74.13;100712.94;10376327;28;20763;-63
2022/05/17 06:36:41;;;;;;;13.90;12.38;;;;;;;19.25;73.36;100710.59;10374729;28;20061;-63
2022/05/17 06:41:58;;;;;;;14.90;13.13;;;;;;;19.46;73.17;100714.63;10374927;28;20566;-63
2022/05/17 06:46:59;;;;;;;13.32;11.93;;;;;;;19.69;71.65;100721.00;10375176;28;20055;-64
2022/05/17 06:52:03;;;;;;;13.18;11.88;;;;;;;19.57;68.96;100688.09;10375155;28;20171;-64
2022/05/17 06:57:06;;;;;;;11.93;10.83;;;;;;;19.85;69.46;100720.16;10377704;28;20053;-65
2022/05/17 07:02:08;;;;;;;10.65;9.30;;;;;;;20.04;68.16;100718.91;10375610;28;20398;-63
2022/05/17 07:07:10;;;;;;;11.13;8.90;;;;;;;20.05;66.94;100714.34;10372906;28;20527;-64
2022/05/17 07:17:31;;;;;;;9.05;8.15;;;;;;;20.48;65.58;100721.06;10372414;28;20187;-64
2022/05/17 07:22:32;;;;;;;10.07;8.27;;;;;;;20.66;64.48;100718.13;10370660;28;20164;-64
2022/05/17 07:27:34;;;;;;;8.95;7.43;;;;;;;20.89;63.51;100721.88;10371597;28;20061;-65
2022/05/17 07:32:36;;;;;;;8.23;7.07;;;;;;;21.16;61.82;100718.63;10372196;28;20067;-63
2022/05/17 07:37:37;;;;;;;8.23;6.38;;;;;;;21.19;60.76;100685.75;10374035;28;20049;-63
2022/05/17 07:42:41;;;;;;;7.38;5.47;;;;;;;21.66;60.37;100718.19;10371832;28;20049;-62
2022/05/17 07:47:43;;;;;;;8.43;6.43;;;;;;;21.89;57.80;100710.84;10372744;28;20041;-64
2022/05/17 07:52:45;;;;;;;10.55;6.40;;;;;;;21.92;56.78;100687.09;10371496;28;20076;-64
2022/05/17 07:57:46;;;;;;;8.77;6.50;;;;;;;22.23;56.40;100722.13;10378954;28;20147;-64
2022/05/17 08:02:49;;;;;;;9.30;5.50;;;;;;;22.42;56.26;100723.44;10367246;28;20276;-65
2022/05/17 08:07:51;;;;;;;;;;;;;;;22.66;54.38;100740.41;10370454;28;20135;-63
2022/05/17 08:12:53;;;;;;;7.82;4.63;;;;;;;22.91;54.46;100730.88;10369498;28;19921;-64
2022/05/17 08:17:55;;;;;;;8.23;5.03;;;;;;;22.87;53.62;100710.56;10371978;28;20433;-65
2022/05/17 08:22:57;;;;;;;7.97;4.00;;;;;;;23.17;53.25;100737.63;10370293;28;20482;-64
2022/05/17 08:27:59;;;;;;;9.95;4.40;;;;;;;23.20;53.13;100726.38;10370184;28;20065;-64
2022/05/17 08:33:17;;;;;;;9.00;5.47;;;;;;;23.47;51.04;100734.75;10369591;28;20266;-67
2022/05/17 08:38:46;;;;;;;8.63;5.85;;;;;;;23.57;51.15;100732.53;10368748;28;20559;-63
2022/05/17 08:44:13;;;;;;;6.63;4.93;;;;;;;23.29;49.48;100725.19;10368517;28;20060;-63
2022/05/17 08:49:44;;;;;;;7.00;5.38;;;;;;;23.50;49.43;100731.63;10368923;28;20081;-63
2022/05/17 08:55:00;;;;;;;6.18;4.88;;;;;;;24.06;48.40;100727.22;10363817;28;20053;-63
2022/05/17 09:00:21;;;;;;;6.47;4.20;;;;;;;24.49;47.94;100722.38;10366263;28;20482;-63
2022/05/17 09:05:33;;;;;;;7.82;4.72;;;;;;;24.77;47.36;100720.59;10369999;28;20842;-63
2022/05/17 09:10:38;;;;;;;8.57;5.20;;;;;;;24.73;47.07;100681.25;10368484;28;20591;-63
2022/05/17 09:15:40;;;;;;;9.30;5.85;;;;;;;24.88;46.71;100711.84;10369856;28;20196;-65
2022/05/17 09:20:42;;;;;;;9.03;6.70;;;;;;;24.92;46.13;100680.44;10368879;28;20557;-64
2022/05/17 09:25:56;;;;;;;14.13;5.35;;;;;;;25.31;46.97;100710.63;10377338;28;20121;-65
2022/05/17 09:31:13;;;;;;;7.30;5.57;;;;;;;25.61;45.79;100702.84;10368622;28;20061;-65
2022/05/17 09:36:21;;;;;;;8.52;5.32;;;;;;;25.85;46.03;100705.97;10367540;28;20722;-63
2022/05/17 09:41:28;;;;;;;5.82;4.35;;;;;;;26.02;44.41;100696.31;10368999;28;20052;-63
2022/05/17 09:46:33;;;;;;;6.80;4.65;;;;;;;26.15;43.07;100706.31;10368718;28;20124;-64
2022/05/17 09:57:11;;;;;;;6.28;4.68;;;;;;;26.37;41.19;100706.03;10367457;28;20049;-63
2022/05/17 10:02:34;;;;;;;6.15;4.40;;;;;;;26.46;42.14;100697.34;10366878;28;20516;-63
2022/05/17 10:07:36;;;;;;;6.13;4.20;;;;;;;27.01;40.64;100698.75;10369177;28;20041;-64
2022/05/17 10:12:38;;;;;;;7.37;4.40;;;;;;;27.21;39.76;100692.28;10366079;28;20142;-63
2022/05/17 10:17:49;;;;;;;6.05;3.65;;;;;;;27.57;39.69;100688.00;10365631;28;20197;-63
2022/05/17 10:23:02;;;;;;;6.88;3.90;;;;;;;27.85;38.42;100692.94;10366169;28;20133;-63
2022/05/17 10:28:26;;;;;;;8.32;3.88;;;;;;;28.35;36.47;100686.47;10369038;28;20077;-64
2022/05/17 10:33:58;;;;;;;4.90;3.10;;;;;;;28.57;36.37;100678.59;10367548;28;20097;-64
2022/05/17 10:39:07;;;;;;;4.45;2.47;;;;;;;28.92;35.07;100670.50;10367264;28;20526;-65
2022/05/17 10:44:16;;;;;;;4.47;2.60;;;;;;;28.71;35.25;100668.31;10366425;28;20724;-64
2022/05/17 10:49:32;;;;;;;5.95;3.30;;;;;;;28.96;35.75;100664.53;10369275;28;20045;-64
2022/05/17 10:54:59;;;;;;;6.80;3.40;;;;;;;29.40;33.45;100671.41;10373395;28;20049;-64
2022/05/17 11:00:19;;;;;;;5.05;3.17;;;;;;;29.85;33.73;100656.25;10370530;28;20132;-64
2022/05/17 11:06:11;;;;;;;5.30;2.83;;;;;;;29.87;33.50;100667.78;10372898;28;20633;-64
2022/05/17 11:11:35;;;;;;;4.78;2.22;;;;;;;29.47;33.81;100660.31;10281057;28;20053;-64
2022/05/17 11:17:03;;;;;;;5.60;2.80;;;;;;;28.87;34.04;100650.34;10373126;28;20071;-64
2022/05/17 11:22:28;;;;;;;6.13;3.70;;;;;;;27.81;34.86;100629.66;10373736;28;20055;-63
2022/05/17 11:27:57;;;;;;;8.45;2.35;;;;;;;27.57;36.72;100653.28;10372622;28;20528;-62
2022/05/17 11:33:28;;;;;;;6.47;2.70;;;;;;;27.31;38.26;100646.97;10374217;28;20164;-67
2022/05/17 11:38:35;;;;;;;4.80;2.88;;;;;;;27.24;38.22;100648.13;10371809;28;20136;-65
2022/05/17 11:43:45;;;;;;;4.40;3.00;;;;;;;27.62;37.74;100644.38;10371482;28;20057;-63
2022/05/17 11:48:54;;;;;;;4.35;2.83;;;;;;;27.77;36.94;100620.22;10371406;28;20207;-63
2022/05/17 11:53:56;;;;;;;6.25;3.83;;;;;;;28.23;36.64;100645.38;10376454;28;20113;-65
2022/05/17 11:59:12;;;;;;;7.22;3.03;;;;;;;28.62;35.73;100621.25;10377457;28;20155;-63
2022/05/17 12:04:36;;;;;;;5.22;2.92;;;;;;;28.71;35.34;100625.31;10370132;28;20081;-64
2022/05/17 12:09:48;;;;;;;8.05;2.88;;;;;;;28.34;35.98;100630.06;10371163;28;20134;-63
2022/05/17 12:15:03;;;;;;;4.53;2.58;;;;;;;27.69;35.68;100628.75;10369224;28;20661;-63
2022/05/17 12:20:20;;;;;;;5.72;2.60;;;;;;;27.11;37.20;100614.41;10368318;28;20136;-63
2022/05/17 12:25:53;;;;;;;4.78;2.55;;;;;;;27.09;37.49;100613.75;10370416;28;20286;-63
2022/05/17 12:31:19;;;;;;;4.55;2.20;;;;;;;27.23;37.52;100610.91;10368467;28;20052;-63
2022/05/17 12:36:23;;;;;;;3.90;2.00;;;;;;;27.24;38.01;100610.69;10365196;28;20451;-63
2022/05/17 12:46:52;;;;;;;4.20;2.10;;;;;;;27.24;35.90;100599.75;10369771;28;20695;-64
2022/05/17 12:52:09;;;;;;;6.80;2.50;;;;;;;27.53;35.88;100591.91;10368934;28;20161;-63
2022/05/17 12:57:25;;;;;;;4.43;2.55;;;;;;;27.49;35.82;100597.00;10369860;28;20688;-63
2022/05/17 13:02:26;;;;;;;4.30;2.65;;;;;;;27.46;36.13;100592.00;10367523;28;20041;-63
2022/05/17 13:07:28;;;;;;;5.03;2.28;;;;;;;27.42;35.24;100585.31;10368780;28;20057;-63
2022/05/17 13:12:37;;;;;;;4.43;2.45;;;;;;;27.69;34.46;100582.25;10367987;28;20049;-64
2022/05/17 13:17:41;;;;;;;5.25;2.25;;;;;;;28.00;35.57;100572.25;10367798;28;20120;-64
2022/05/17 13:22:44;;;;;;;3.50;2.72;;;;;;;28.43;34.40;100568.44;10368849;28;20053;-65
2022/05/17 13:27:49;;;;;;;5.22;2.42;;;;;;;28.56;34.03;100562.75;10368358;28;20221;-63
2022/05/17 13:32:51;;;;;;;3.10;1.65;;;;;;;28.53;33.48;100563.22;10368203;28;20141;-64
2022/05/17 13:38:10;;;;;;;2.30;1.67;;;;;;;28.43;33.17;100562.94;10372714;28;20120;-63
2022/05/17 13:43:34;;;;;;;4.22;1.60;;;;;;;28.37;33.74;100552.94;10370973;28;20053;-63
2022/05/17 13:48:39;;;;;;;4.55;2.17;;;;;;;28.52;33.50;100553.31;10357617;28;20728;-63
2022/05/17 13:53:48;;;;;;;4.53;1.98;;;;;;;28.25;33.62;100539.22;10367845;28;20118;-64
2022/05/17 13:58:49;;;;;;;4.53;1.55;;;;;;;28.09;33.35;100556.31;10366556;28;20064;-63
2022/05/17 14:04:11;;;;;;;4.70;1.63;;;;;;;27.75;33.97;100537.59;10368590;28;20165;-63
2022/05/17 14:14:32;;;;;;;3.28;1.33;;;;;;;27.36;34.92;100545.22;10367649;28;20503;-64
2022/05/17 14:19:34;;;;;;;3.17;1.23;;;;;;;26.93;35.70;100505.94;10369072;28;20053;-64
2022/05/17 14:24:36;;;;;;;3.27;1.43;;;;;;;27.02;35.79;100525.56;10378976;28;20127;-64
2022/05/17 14:29:39;;;;;;;2.00;1.42;;;;;;;26.74;36.73;100528.81;10379292;28;20177;-64
2022/05/17 14:34:42;;;;;;;3.17;1.10;;;;;;;26.53;37.19;100494.50;10377174;28;20542;-64
2022/05/17 14:39:44;;;;;;;3.75;1.42;;;;;;;26.54;37.64;100528.94;10376697;28;20168;-64
2022/05/17 14:44:45;;;;;;;4.03;1.88;;;;;;;26.48;37.55;100522.47;10377944;28;20045;-64
2022/05/17 14:49:53;;;;;;;3.92;1.45;;;;;;;26.43;37.86;100531.31;10373529;28;20136;-63
2022/05/17 14:54:55;;;;;;;1.88;1.25;;;;;;;26.33;37.86;100522.78;10374791;28;20060;-64
2022/05/17 14:59:56;;;;;;;2.33;1.00;;;;;;;26.10;38.47;100475.09;10376688;28;20103;-63
2022/05/17 15:04:58;;;;;;;3.20;1.17;;;;;;;26.23;38.53;100500.63;10377632;28;20317;-63
2022/05/17 15:10:05;;;;;;;2.30;1.23;;;;;;;26.13;38.97;100489.38;10373472;28;20053;-64
2022/05/17 15:15:08;;;;;;;3.17;1.20;;;;;;;26.17;38.96;100498.78;10374620;28;20211;-63
2022/05/17 15:20:13;;;;;;;2.63;1.63;;;;;;;26.06;39.82;100503.03;10373450;28;20094;-63
2022/05/17 15:25:17;;;;;;;2.50;1.20;;;;;;;26.04;40.22;100500.53;10373757;28;20463;-63
2022/05/17 15:30:20;;;;;;;4.18;2.10;;;;;;;25.80;40.80;100468.59;10372405;28;20057;-63
2022/05/17 15:35:23;;;;;;;;;;;;;;;25.98;40.67;100501.38;10373344;28;20501;-63
2022/05/17 15:40:25;;;;;;;;;;;;;;;25.94;40.98;100509.19;10370988;28;20048;-64
2022/05/17 15:45:27;;;;;;;3.90;1.67;;;;;;;25.77;40.87;100478.03;10371005;28;20479;-63
2022/05/17 15:55:56;;;;;;;2.72;1.30;;;;;;;25.98;41.53;100498.66;10370446;28;20166;-64
2022/05/17 16:00:59;;;;;;;1.55;1.20;;;;;;;26.08;41.16;100501.78;10369464;28;20103;-64
2022/05/17 16:06:01;;;;;;;4.15;1.80;;;;;;;26.14;40.91;100497.34;10370353;28;20049;-63
2022/05/17 16:16:22;;;;;;;5.28;1.60;;;;;;;26.03;40.89;100487.13;10368362;28;20356;-62
2022/05/17 16:21:24;;;;;;;4.20;1.88;;;;;;;25.83;39.53;100481.78;10369604;28;20054;-63
2022/05/17 16:26:27;;;;;;;3.35;1.30;;;;;;;25.72;40.41;100481.41;10369566;28;20503;-63
2022/05/17 16:31:31;;;;;;;3.33;1.50;;;;;;;25.89;40.19;100489.06;10368754;28;20075;-63
2022/05/17 16:36:33;;;;;;;2.75;1.60;;;;;;;25.74;40.32;100460.19;10369887;28;20411;-63
2022/05/17 16:41:34;;;;;;;2.88;1.50;;;;;;;25.91;40.70;100478.78;10372664;28;20063;-63
2022/05/17 16:46:39;;;;;;;2.75;1.67;;;;;;;25.81;40.36;100459.34;10369872;28;20496;-63
2022/05/17 16:51:42;;;;;;;3.90;1.70;;;;;;;25.89;40.25;100478.16;10370014;28;20125;-64
2022/05/17 16:56:43;;;;;;;3.90;1.45;;;;;;;25.76;40.54;100474.47;10390186;28;20128;-63
2022/05/17 17:01:45;;;;;;;2.38;1.20;;;;;;;25.69;40.54;100479.13;10368611;28;20544;-63
2022/05/17 17:06:47;;;;;;;2.35;1.20;;;;;;;25.65;40.28;100472.44;10370817;28;20063;-64
2022/05/17 17:11:49;;;;;;;3.45;1.45;;;;;;;25.64;39.64;100470.78;10369898;28;20041;-62
2022/05/17 17:16:50;;;;;;;4.93;1.70;;;;;;;25.65;40.12;100472.44;10367101;28;20056;-63
2022/05/17 17:21:52;;;;;;;2.97;1.40;;;;;;;25.62;39.91;100470.13;10366586;28;20503;-64
2022/05/17 17:26:53;;;;;;;3.08;1.20;;;;;;;25.52;39.94;100472.50;10367552;28;20249;-63
2022/05/17 17:37:22;;;;;;;3.72;1.45;;;;;;;25.31;40.10;100471.75;10364312;28;20073;-64
2022/05/17 17:37:26;;;;;;;3.33;1.10;;;;;;;25.18;40.50;100471.78;10366748;28;20124;-64
2022/05/17 17:42:27;;;;;;;2.17;1.08;;;;;;;25.09;39.90;100484.78;10366526;28;20042;-64
2022/05/17 17:47:30;;;;;;;1.92;0.95;;;;;;;24.99;39.45;100485.22;10368133;28;20057;-63
2022/05/17 17:52:31;;;;;;;1.75;1.23;;;;;;;24.90;40.36;100481.06;10367092;28;20048;-63
2022/05/17 17:57:33;;;;;;;2.05;1.10;;;;;;;24.66;41.55;100458.06;10372039;28;20569;-63
2022/05/17 18:02:35;;;;;;;1.73;1.63;;;;;;;24.76;42.04;100479.41;10377330;28;20053;-63
2022/05/17 18:07:36;;;;;;;2.80;1.30;;;;;;;24.62;42.78;100484.88;10377160;28;20060;-63
2022/05/17 18:12:39;;;;;;;3.90;1.67;;;;;;;24.49;43.80;100487.56;10377964;28;20057;-65
2022/05/17 18:17:44;;;;;;;2.63;1.23;;;;;;;24.37;44.20;100475.66;10381850;28;20065;-64
2022/05/17 18:22:46;;;;;;;4.95;1.58;;;;;;;24.02;45.06;100444.03;10372777;28;20045;-64
2022/05/17 18:27:53;;;;;;;2.83;1.73;;;;;;;24.16;46.07;100485.66;10373743;28;20057;-64
2022/05/17 18:32:54;;;;;;;3.92;1.50;;;;;;;24.05;46.24;100489.84;10373004;28;20053;-64
2022/05/17 18:37:56;;;;;;;4.25;1.75;;;;;;;23.92;47.32;100490.63;10373029;28;20045;-64
2022/05/17 18:42:58;;;;;;;2.80;1.70;;;;;;;23.83;48.28;100491.84;10371639;28;20076;-63
2022/05/17 18:48:05;;;;;;;5.03;2.20;;;;;;;23.75;48.86;100501.03;10373402;28;20226;-65
2022/05/17 18:53:06;;;;;;;4.25;1.70;;;;;;;23.64;49.10;100507.91;10374802;28;20142;-65
2022/05/17 18:58:09;;;;;;;2.55;1.92;;;;;;;23.32;49.49;100479.53;10376414;28;20148;-64
2022/05/17 19:03:15;;;;;;;2.30;1.65;;;;;;;23.44;50.51;100521.38;10376388;28;20046;-65
2022/05/17 19:13:43;;;;;;;3.40;1.88;;;;;;;23.25;51.13;100519.41;10372775;28;20056;-64
2022/05/17 19:18:55;;;;;;;4.47;2.53;;;;;;;23.17;52.14;100535.88;10374202;28;20043;-63
2022/05/17 19:23:58;;;;;;;3.00;2.17;;;;;;;23.10;52.81;100535.81;10379758;28;20119;-64
2022/05/17 19:29:00;;;;;;;3.58;2.40;;;;;;;23.02;52.80;100546.81;10373824;28;20076;-65
2022/05/17 19:34:05;;;;;;;3.95;2.25;;;;;;;22.92;53.70;100545.28;10373621;28;20131;-63
2022/05/17 19:39:24;;;;;;;4.63;2.47;;;;;;;22.87;53.83;100555.88;10373570;28;20488;-65
2022/05/17 19:44:26;;;;;;;3.70;2.72;;;;;;;22.78;54.04;100560.59;10375032;28;20052;-65
2022/05/17 19:49:44;;;;;;;4.07;2.70;;;;;;;22.71;54.32;100564.31;10372364;28;20570;-64
2022/05/17 19:54:47;;;;;;;4.10;2.13;;;;;;;22.67;54.01;100563.00;10375016;28;20127;-64
2022/05/17 19:59:49;;;;;;;3.38;2.17;;;;;;;22.60;54.59;100562.97;10372430;28;20102;-65
2022/05/17 20:04:50;;;;;;;7.40;2.72;;;;;;;22.48;54.92;100559.94;10373058;28;20053;-64
2022/05/17 20:09:52;;;;;;;4.35;2.65;;;;;;;22.28;55.03;100539.88;10370625;28;20144;-64
2022/05/17 20:14:53;;;;;;;4.10;2.42;;;;;;;22.39;55.58;100571.94;10373213;28;20081;-63
2022/05/17 20:19:55;;;;;;;4.50;3.17;;;;;;;22.28;55.44;100569.69;10371644;28;20537;-63
2022/05/17 20:24:56;;;;;;;3.05;2.58;;;;;;;22.25;56.12;100573.66;10372881;28;20144;-64
2022/05/17 20:29:58;;;;;;;4.00;3.63;;;;;;;22.18;56.26;100570.88;10371652;28;20058;-63
2022/05/17 20:35:01;;;;;;;5.00;2.83;;;;;;;22.15;56.21;100575.84;10371938;28;20503;-64
2022/05/17 20:40:04;;;;;;;4.60;3.13;;;;;;;22.09;56.63;100582.03;10371413;28;20187;-64
2022/05/17 20:45:10;;;;;;;4.05;3.08;;;;;;;22.02;57.00;100579.22;10372199;28;20653;-65
2022/05/17 20:50:14;;;;;;;8.43;6.35;;;;;;;21.97;56.31;100578.97;10384965;28;20518;-65
2022/05/17 20:55:15;;;;;;;6.25;3.97;;;;;;;21.91;57.05;100577.03;10369560;28;20122;-63
2022/05/17 21:00:17;;;;;;;8.25;4.32;;;;;;;21.85;57.23;100575.91;10368678;28;20041;-64
2022/05/17 21:05:19;;;;;;;4.10;3.17;;;;;;;21.82;57.69;100587.13;10367581;28;20057;-63
2022/05/17 21:10:22;;;;;;;3.67;3.03;;;;;;;21.77;57.48;100585.00;10367352;28;20063;-65
2022/05/17 21:15:26;;;;;;;;;;;;;;;21.75;57.28;100584.31;10370064;28;20177;-63
2022/05/17 21:20:27;;;;;;;6.68;2.80;;;;;;;21.44;58.20;100577.22;10370840;28;20158;-64
2022/05/17 21:25:29;;;;;;;5.43;3.28;;;;;;;21.53;57.54;100584.25;10370303;28;20675;-64
2022/05/17 21:30:30;;;;;;;4.35;2.38;;;;;;;21.56;57.22;100584.91;10368111;28;20065;-65
2022/05/17 21:35:37;;;;;;;5.13;2.65;;;;;;;21.58;57.98;100586.41;10386145;28;20087;-63
2022/05/17 21:40:41;;;;;;;5.53;2.55;;;;;;;21.53;57.09;100595.09;10374134;28;20131;-64
2022/05/17 21:45:43;;;;;;;5.93;2.65;;;;;;;21.53;57.80;100600.50;10374710;28;20578;-64
2022/05/17 21:50:45;;;;;;;4.68;2.72;;;;;;;21.30;57.67;100551.84;10386783;28;20053;-63
2022/05/17 21:55:49;;;;;;;3.13;2.70;;;;;;;21.49;58.13;100588.34;10378002;28;20106;-64
2022/05/17 22:00:52;;;;;;;3.38;2.83;;;;;;;21.43;59.21;100585.53;10370263;28;20045;-64
2022/05/17 22:05:54;;;;;;;6.70;3.08;;;;;;;21.39;59.39;100595.88;10367764;28;20147;-64
2022/05/17 22:16:21;;;;;;;6.40;3.30;;;;;;;21.30;59.92;100594.31;10366462;28;20144;-63
2022/05/17 22:21:24;;;;;;;5.15;3.17;;;;;;;21.25;59.73;100592.16;10367451;28;20057;-64
2022/05/17 22:26:28;;;;;;;4.93;3.23;;;;;;;21.19;60.39;100587.50;10367984;28;20128;-64
2022/05/17 22:31:30;;;;;;;3.95;3.50;;;;;;;21.13;60.23;100583.66;10367170;28;20120;-65
2022/05/17 22:36:32;;;;;;;4.40;3.00;;;;;;;21.10;60.33;100600.25;10368403;28;20049;-65
2022/05/17 22:41:34;;;;;;;5.38;3.05;;;;;;;21.07;60.64;100589.81;10367908;28;20496;-65
2022/05/17 22:51:55;;;;;;;5.28;3.58;;;;;;;21.02;61.36;100597.66;10373822;28;20049;-64
2022/05/17 22:56:56;;;;;;;5.90;3.95;;;;;;;20.80;60.64;100570.44;10373531;28;20057;-64
2022/05/17 23:01:58;;;;;;;4.43;3.40;;;;;;;20.95;60.94;100602.09;10374151;28;20049;-64
2022/05/17 23:07:00;;;;;;;3.80;3.13;;;;;;;20.91;61.06;100600.78;10374983;28;20163;-64
2022/05/17 23:12:04;;;;;;;5.20;3.53;;;;;;;20.64;61.40;100562.44;10371855;28;20063;-63
2022/05/17 23:17:05;;;;;;;3.97;2.92;;;;;;;20.82;61.46;100614.38;10374307;28;20049;-63
2022/05/17 23:22:07;;;;;;;4.85;3.63;;;;;;;20.79;62.17;100616.59;10372540;28;20049;-64
2022/05/17 23:32:28;;;;;;;6.38;3.65;;;;;;;20.75;63.41;100635.06;10373609;28;20061;-63
2022/05/17 23:37:29;;;;;;;3.92;3.28;;;;;;;20.69;62.64;100630.38;10373656;28;20124;-66
2022/05/17 23:42:32;;;;;;;3.88;3.47;;;;;;;20.61;62.78;100633.97;10373443;28;20203;-64
2022/05/17 23:47:34;;;;;;;4.20;3.30;;;;;;;20.41;63.36;100605.72;10372588;28;20053;-63
2022/05/17 23:52:35;;;;;;;5.15;4.65;;;;;;;20.49;63.25;100614.63;10374354;28;20056;-63
2022/05/17 23:57:37;;;;;;;7.78;4.32;;;;;;;20.45;63.42;100618.69;10371584;28;20131;-63
